Main page
METAR-TAF:

METAR-TAF

Airports :

Silvio Pettirossi International Airport

Asunción, Paraguay

latitude: 25-16S, longitude: 057-38W, elevation: 101 m

Current weather observation

The report was made 11 minutes ago, at 16:00 UTC
Wind 11 kt from the Northeast
Temperature 26°C
Humidity 37%
Pressure 1016 hPa
Visibility 10 km or more
no clouds below 1500 m and no cumulonimbus

METAR: SGAS 281600Z 04011KT CAVOK 26/10 Q1016

Time: 12:11 (16:11 UTC)

Forecast

The report was made 5 hours and 26 minutes ago, at 10:45 UTC
Forecast valid from 28 at 12 UTC to 29 at 12 UTC
Wind 8 kt from the Northeast
Visibility 10 km or more
no clouds below 1500 m and no cumulonimbus
Temporary
from 29 at 06 UTC to 29 at 08 UTC
Wind 2 kt from variable directions
Visibility: 8000 m
Becoming
from 29 at 09 UTC to 29 at 12 UTC
Wind 8 kt from the Northeast
Visibility 10 km or more
no clouds below 1500 m and no cumulonimbus

TAF: SGAS 281045Z 2812/2912 05008KT CAVOK TX26/2819Z TN12/2909Z TEMPO 2906/2908 VRB02KT 8000 NSC BECMG 2909/2912 05008KT CAVOK

Weather observations and forecasts of more than 4000 airports (METAR and TAF reports).

The available stations are represented by yellow and red dots on the map.

Hover mouse over dot to see the name of the station.

Then click to see weather observations and forecasts.

To change the map : click on the green buttons with a black cross to zoom in, on the green button with a dash to zoom out, or on the green arrows for adjacent maps.


METAR-TAF: